sensor_id;sensor_type;location;lat;lon;timestamp;P1;durP1;ratioP1;P2;durP2;ratioP2
8737;SDS011;4405;49.272;8.590;2023-08-08T00:02:10;2.00;;;1.63;;
8737;SDS011;4405;49.272;8.590;2023-08-08T00:04:37;2.13;;;1.57;;
8737;SDS011;4405;49.272;8.590;2023-08-08T00:07:03;1.60;;;1.60;;
8737;SDS011;4405;49.272;8.590;2023-08-08T00:09:31;2.00;;;1.50;;
8737;SDS011;4405;49.272;8.590;2023-08-08T00:11:57;1.53;;;1.53;;
8737;SDS011;4405;49.272;8.590;2023-08-08T00:14:24;1.63;;;1.53;;
8737;SDS011;4405;49.272;8.590;2023-08-08T00:16:50;1.70;;;1.60;;
8737;SDS011;4405;49.272;8.590;2023-08-08T00:19:16;2.10;;;1.70;;
8737;SDS011;4405;49.272;8.590;2023-08-08T00:21:43;1.60;;;1.50;;
8737;SDS011;4405;49.272;8.590;2023-08-08T00:24:09;2.60;;;1.67;;
8737;SDS011;4405;49.272;8.590;2023-08-08T00:26:37;1.87;;;1.70;;
8737;SDS011;4405;49.272;8.590;2023-08-08T00:29:03;1.97;;;1.80;;
8737;SDS011;4405;49.272;8.590;2023-08-08T00:31:29;1.50;;;1.47;;
8737;SDS011;4405;49.272;8.590;2023-08-08T00:33:56;2.27;;;1.77;;
8737;SDS011;4405;49.272;8.590;2023-08-08T00:36:22;2.00;;;1.90;;
8737;SDS011;4405;49.272;8.590;2023-08-08T00:38:48;1.80;;;1.70;;
8737;SDS011;4405;49.272;8.590;2023-08-08T00:41:15;2.30;;;1.57;;
8737;SDS011;4405;49.272;8.590;2023-08-08T00:43:42;2.30;;;1.83;;
8737;SDS011;4405;49.272;8.590;2023-08-08T00:46:09;5.03;;;1.83;;
8737;SDS011;4405;49.272;8.590;2023-08-08T00:48:36;2.80;;;1.70;;
8737;SDS011;4405;49.272;8.590;2023-08-08T00:51:02;3.53;;;1.90;;
8737;SDS011;4405;49.272;8.590;2023-08-08T00:53:29;2.27;;;1.90;;
8737;SDS011;4405;49.272;8.590;2023-08-08T00:55:56;1.83;;;1.73;;
8737;SDS011;4405;49.272;8.590;2023-08-08T00:58:24;3.23;;;1.73;;
8737;SDS011;4405;49.272;8.590;2023-08-08T01:00:51;1.70;;;1.60;;
8737;SDS011;4405;49.272;8.590;2023-08-08T01:03:19;1.70;;;1.60;;
8737;SDS011;4405;49.272;8.590;2023-08-08T01:05:47;3.23;;;1.90;;
8737;SDS011;4405;49.272;8.590;2023-08-08T01:08:17;1.60;;;1.50;;
8737;SDS011;4405;49.272;8.590;2023-08-08T01:10:46;2.37;;;1.90;;
8737;SDS011;4405;49.272;8.590;2023-08-08T01:13:13;1.73;;;1.63;;
8737;SDS011;4405;49.272;8.590;2023-08-08T01:15:41;2.00;;;1.90;;
8737;SDS011;4405;49.272;8.590;2023-08-08T01:18:09;2.03;;;1.80;;
8737;SDS011;4405;49.272;8.590;2023-08-08T01:20:36;2.80;;;1.50;;
8737;SDS011;4405;49.272;8.590;2023-08-08T01:23:05;2.00;;;1.80;;
8737;SDS011;4405;49.272;8.590;2023-08-08T01:25:34;1.93;;;1.50;;
8737;SDS011;4405;49.272;8.590;2023-08-08T01:28:00;4.57;;;1.70;;
8737;SDS011;4405;49.272;8.590;2023-08-08T01:30:27;1.97;;;1.60;;
8737;SDS011;4405;49.272;8.590;2023-08-08T01:32:53;2.37;;;1.67;;
8737;SDS011;4405;49.272;8.590;2023-08-08T01:35:20;2.30;;;1.60;;
8737;SDS011;4405;49.272;8.590;2023-08-08T01:37:47;3.30;;;1.73;;
8737;SDS011;4405;49.272;8.590;2023-08-08T01:40:15;2.80;;;1.80;;
8737;SDS011;4405;49.272;8.590;2023-08-08T01:42:45;1.90;;;1.80;;
8737;SDS011;4405;49.272;8.590;2023-08-08T01:45:14;2.13;;;1.80;;
8737;SDS011;4405;49.272;8.590;2023-08-08T01:47:40;3.50;;;1.93;;
8737;SDS011;4405;49.272;8.590;2023-08-08T01:50:07;1.93;;;1.83;;
8737;SDS011;4405;49.272;8.590;2023-08-08T01:52:34;1.70;;;1.60;;
8737;SDS011;4405;49.272;8.590;2023-08-08T01:55:01;1.93;;;1.83;;
8737;SDS011;4405;49.272;8.590;2023-08-08T01:57:28;4.50;;;2.00;;
8737;SDS011;4405;49.272;8.590;2023-08-08T01:59:55;3.07;;;2.00;;
8737;SDS011;4405;49.272;8.590;2023-08-08T02:02:21;3.13;;;1.90;;
8737;SDS011;4405;49.272;8.590;2023-08-08T02:04:48;2.10;;;1.80;;
8737;SDS011;4405;49.272;8.590;2023-08-08T02:07:14;2.27;;;1.77;;
8737;SDS011;4405;49.272;8.590;2023-08-08T02:09:41;2.57;;;1.70;;
8737;SDS011;4405;49.272;8.590;2023-08-08T02:12:07;1.80;;;1.70;;
8737;SDS011;4405;49.272;8.590;2023-08-08T02:14:34;2.40;;;2.20;;
8737;SDS011;4405;49.272;8.590;2023-08-08T02:17:01;1.87;;;1.77;;
8737;SDS011;4405;49.272;8.590;2023-08-08T02:19:28;2.47;;;1.80;;
8737;SDS011;4405;49.272;8.590;2023-08-08T02:21:54;1.93;;;1.70;;
8737;SDS011;4405;49.272;8.590;2023-08-08T02:24:20;2.00;;;1.90;;
8737;SDS011;4405;49.272;8.590;2023-08-08T02:26:47;1.80;;;1.70;;
8737;SDS011;4405;49.272;8.590;2023-08-08T02:29:13;1.63;;;1.63;;
8737;SDS011;4405;49.272;8.590;2023-08-08T02:31:40;2.03;;;1.93;;
8737;SDS011;4405;49.272;8.590;2023-08-08T02:34:07;2.10;;;1.90;;
8737;SDS011;4405;49.272;8.590;2023-08-08T02:36:34;2.13;;;2.03;;
8737;SDS011;4405;49.272;8.590;2023-08-08T02:39:00;1.90;;;1.80;;
8737;SDS011;4405;49.272;8.590;2023-08-08T02:41:26;4.53;;;1.97;;
8737;SDS011;4405;49.272;8.590;2023-08-08T02:43:52;2.00;;;1.90;;
8737;SDS011;4405;49.272;8.590;2023-08-08T02:46:19;2.20;;;2.10;;
8737;SDS011;4405;49.272;8.590;2023-08-08T02:48:45;3.07;;;1.77;;
8737;SDS011;4405;49.272;8.590;2023-08-08T02:51:13;2.70;;;1.77;;
8737;SDS011;4405;49.272;8.590;2023-08-08T02:53:39;2.03;;;1.93;;
8737;SDS011;4405;49.272;8.590;2023-08-08T02:56:05;2.60;;;2.07;;
8737;SDS011;4405;49.272;8.590;2023-08-08T02:58:32;2.27;;;2.10;;
8737;SDS011;4405;49.272;8.590;2023-08-08T03:00:58;1.80;;;1.80;;
8737;SDS011;4405;49.272;8.590;2023-08-08T03:03:24;2.27;;;2.07;;
8737;SDS011;4405;49.272;8.590;2023-08-08T03:05:51;2.50;;;2.07;;
8737;SDS011;4405;49.272;8.590;2023-08-08T03:08:18;3.23;;;1.83;;
8737;SDS011;4405;49.272;8.590;2023-08-08T03:10:45;3.37;;;2.17;;
8737;SDS011;4405;49.272;8.590;2023-08-08T03:13:11;2.50;;;2.30;;
8737;SDS011;4405;49.272;8.590;2023-08-08T03:15:37;3.60;;;2.40;;
8737;SDS011;4405;49.272;8.590;2023-08-08T03:18:04;2.03;;;1.93;;
8737;SDS011;4405;49.272;8.590;2023-08-08T03:20:30;4.27;;;1.97;;
8737;SDS011;4405;49.272;8.590;2023-08-08T03:22:56;1.80;;;1.70;;
8737;SDS011;4405;49.272;8.590;2023-08-08T03:25:24;1.90;;;1.80;;
8737;SDS011;4405;49.272;8.590;2023-08-08T03:27:51;2.30;;;2.10;;
8737;SDS011;4405;49.272;8.590;2023-08-08T03:30:17;2.93;;;1.90;;
8737;SDS011;4405;49.272;8.590;2023-08-08T03:32:43;3.03;;;2.00;;
8737;SDS011;4405;49.272;8.590;2023-08-08T03:35:10;2.10;;;2.00;;
8737;SDS011;4405;49.272;8.590;2023-08-08T03:37:36;2.00;;;1.90;;
8737;SDS011;4405;49.272;8.590;2023-08-08T03:40:03;2.30;;;1.80;;
8737;SDS011;4405;49.272;8.590;2023-08-08T03:42:30;2.83;;;1.90;;
8737;SDS011;4405;49.272;8.590;2023-08-08T03:44:57;2.53;;;1.90;;
8737;SDS011;4405;49.272;8.590;2023-08-08T03:47:23;1.70;;;1.60;;
8737;SDS011;4405;49.272;8.590;2023-08-08T03:49:49;1.80;;;1.70;;
8737;SDS011;4405;49.272;8.590;2023-08-08T03:52:16;2.53;;;2.20;;
8737;SDS011;4405;49.272;8.590;2023-08-08T03:54:42;2.27;;;2.10;;
8737;SDS011;4405;49.272;8.590;2023-08-08T03:57:09;1.83;;;1.83;;
8737;SDS011;4405;49.272;8.590;2023-08-08T03:59:36;2.03;;;1.70;;
8737;SDS011;4405;49.272;8.590;2023-08-08T04:02:03;2.17;;;1.70;;
8737;SDS011;4405;49.272;8.590;2023-08-08T04:04:29;2.87;;;2.10;;
8737;SDS011;4405;49.272;8.590;2023-08-08T04:06:55;3.47;;;1.97;;
8737;SDS011;4405;49.272;8.590;2023-08-08T04:09:22;1.67;;;1.67;;
8737;SDS011;4405;49.272;8.590;2023-08-08T04:11:48;4.00;;;1.70;;
8737;SDS011;4405;49.272;8.590;2023-08-08T04:14:14;1.90;;;1.73;;
8737;SDS011;4405;49.272;8.590;2023-08-08T04:16:42;2.10;;;2.00;;
8737;SDS011;4405;49.272;8.590;2023-08-08T04:19:08;3.20;;;1.90;;
8737;SDS011;4405;49.272;8.590;2023-08-08T04:21:35;1.90;;;1.80;;
8737;SDS011;4405;49.272;8.590;2023-08-08T04:24:01;2.13;;;1.70;;
8737;SDS011;4405;49.272;8.590;2023-08-08T04:26:27;1.93;;;1.70;;
8737;SDS011;4405;49.272;8.590;2023-08-08T04:28:54;2.53;;;1.80;;
8737;SDS011;4405;49.272;8.590;2023-08-08T04:31:20;5.70;;;2.00;;
8737;SDS011;4405;49.272;8.590;2023-08-08T04:33:50;2.10;;;1.90;;
8737;SDS011;4405;49.272;8.590;2023-08-08T04:36:17;1.60;;;1.60;;
8737;SDS011;4405;49.272;8.590;2023-08-08T04:38:43;1.77;;;1.67;;
8737;SDS011;4405;49.272;8.590;2023-08-08T04:41:09;1.83;;;1.73;;
8737;SDS011;4405;49.272;8.590;2023-08-08T04:43:36;2.13;;;1.87;;
8737;SDS011;4405;49.272;8.590;2023-08-08T04:46:02;1.87;;;1.77;;
8737;SDS011;4405;49.272;8.590;2023-08-08T04:48:28;6.13;;;2.00;;
8737;SDS011;4405;49.272;8.590;2023-08-08T04:50:56;1.73;;;1.67;;
8737;SDS011;4405;49.272;8.590;2023-08-08T04:53:22;2.80;;;1.70;;
8737;SDS011;4405;49.272;8.590;2023-08-08T04:55:49;2.00;;;1.83;;
8737;SDS011;4405;49.272;8.590;2023-08-08T04:58:15;1.80;;;1.70;;
8737;SDS011;4405;49.272;8.590;2023-08-08T05:00:41;2.80;;;2.00;;
8737;SDS011;4405;49.272;8.590;2023-08-08T05:03:08;2.77;;;1.73;;
8737;SDS011;4405;49.272;8.590;2023-08-08T05:05:34;3.37;;;1.80;;
8737;SDS011;4405;49.272;8.590;2023-08-08T05:08:02;2.10;;;1.87;;
8737;SDS011;4405;49.272;8.590;2023-08-08T05:10:28;2.00;;;1.90;;
8737;SDS011;4405;49.272;8.590;2023-08-08T05:12:56;4.00;;;2.00;;
8737;SDS011;4405;49.272;8.590;2023-08-08T05:15:22;1.87;;;1.73;;
8737;SDS011;4405;49.272;8.590;2023-08-08T05:17:48;2.70;;;1.80;;
8737;SDS011;4405;49.272;8.590;2023-08-08T05:20:16;3.80;;;1.70;;
8737;SDS011;4405;49.272;8.590;2023-08-08T05:22:42;3.20;;;1.80;;
8737;SDS011;4405;49.272;8.590;2023-08-08T05:25:10;1.83;;;1.73;;
8737;SDS011;4405;49.272;8.590;2023-08-08T05:27:36;1.80;;;1.70;;
8737;SDS011;4405;49.272;8.590;2023-08-08T05:30:03;2.33;;;2.20;;
8737;SDS011;4405;49.272;8.590;2023-08-08T05:32:30;2.37;;;2.00;;
8737;SDS011;4405;49.272;8.590;2023-08-08T05:34:56;1.70;;;1.60;;
8737;SDS011;4405;49.272;8.590;2023-08-08T05:37:22;2.50;;;1.70;;
8737;SDS011;4405;49.272;8.590;2023-08-08T05:39:49;2.90;;;1.90;;
8737;SDS011;4405;49.272;8.590;2023-08-08T05:42:16;2.40;;;1.90;;
8737;SDS011;4405;49.272;8.590;2023-08-08T05:44:43;2.30;;;2.10;;
8737;SDS011;4405;49.272;8.590;2023-08-08T05:47:09;2.33;;;1.50;;
8737;SDS011;4405;49.272;8.590;2023-08-08T05:49:36;1.50;;;1.50;;
8737;SDS011;4405;49.272;8.590;2023-08-08T05:52:02;2.27;;;2.10;;
8737;SDS011;4405;49.272;8.590;2023-08-08T05:54:28;3.27;;;1.80;;
8737;SDS011;4405;49.272;8.590;2023-08-08T05:56:55;2.90;;;1.60;;
8737;SDS011;4405;49.272;8.590;2023-08-08T05:59:22;1.63;;;1.53;;
8737;SDS011;4405;49.272;8.590;2023-08-08T06:01:49;1.47;;;1.47;;
8737;SDS011;4405;49.272;8.590;2023-08-08T06:04:15;3.60;;;1.90;;
8737;SDS011;4405;49.272;8.590;2023-08-08T06:06:43;2.83;;;1.60;;
8737;SDS011;4405;49.272;8.590;2023-08-08T06:09:10;3.73;;;1.83;;
8737;SDS011;4405;49.272;8.590;2023-08-08T06:11:37;1.57;;;1.50;;
8737;SDS011;4405;49.272;8.590;2023-08-08T06:14:03;1.67;;;1.60;;
8737;SDS011;4405;49.272;8.590;2023-08-08T06:16:31;1.70;;;1.60;;
8737;SDS011;4405;49.272;8.590;2023-08-08T06:18:57;1.80;;;1.70;;
8737;SDS011;4405;49.272;8.590;2023-08-08T06:21:24;2.00;;;1.90;;
8737;SDS011;4405;49.272;8.590;2023-08-08T06:23:50;1.90;;;1.80;;
8737;SDS011;4405;49.272;8.590;2023-08-08T06:26:19;3.70;;;1.67;;
8737;SDS011;4405;49.272;8.590;2023-08-08T06:28:46;1.90;;;1.80;;
8737;SDS011;4405;49.272;8.590;2023-08-08T06:31:12;3.50;;;1.50;;
8737;SDS011;4405;49.272;8.590;2023-08-08T06:33:40;2.00;;;1.73;;
8737;SDS011;4405;49.272;8.590;2023-08-08T06:36:06;2.43;;;1.73;;
8737;SDS011;4405;49.272;8.590;2023-08-08T06:38:33;2.97;;;1.70;;
8737;SDS011;4405;49.272;8.590;2023-08-08T06:40:59;3.33;;;1.60;;
8737;SDS011;4405;49.272;8.590;2023-08-08T06:43:26;2.43;;;2.00;;
8737;SDS011;4405;49.272;8.590;2023-08-08T06:45:52;3.80;;;1.70;;
8737;SDS011;4405;49.272;8.590;2023-08-08T06:48:18;1.87;;;1.70;;
8737;SDS011;4405;49.272;8.590;2023-08-08T06:50:46;2.30;;;1.70;;
8737;SDS011;4405;49.272;8.590;2023-08-08T06:53:12;3.43;;;1.80;;
8737;SDS011;4405;49.272;8.590;2023-08-08T06:55:39;2.37;;;1.70;;
8737;SDS011;4405;49.272;8.590;2023-08-08T06:58:05;1.97;;;1.63;;
8737;SDS011;4405;49.272;8.590;2023-08-08T07:00:31;3.43;;;1.70;;
8737;SDS011;4405;49.272;8.590;2023-08-08T07:02:58;2.00;;;1.90;;
8737;SDS011;4405;49.272;8.590;2023-08-08T07:05:24;2.20;;;1.70;;
8737;SDS011;4405;49.272;8.590;2023-08-08T07:07:52;3.10;;;1.70;;
8737;SDS011;4405;49.272;8.590;2023-08-08T07:10:19;1.47;;;1.47;;
8737;SDS011;4405;49.272;8.590;2023-08-08T07:12:45;3.63;;;1.80;;
8737;SDS011;4405;49.272;8.590;2023-08-08T07:15:12;1.30;;;1.30;;
8737;SDS011;4405;49.272;8.590;2023-08-08T07:17:38;2.20;;;1.63;;
8737;SDS011;4405;49.272;8.590;2023-08-08T07:20:05;1.70;;;1.60;;
8737;SDS011;4405;49.272;8.590;2023-08-08T07:22:32;1.60;;;1.57;;
8737;SDS011;4405;49.272;8.590;2023-08-08T07:24:59;1.73;;;1.40;;
8737;SDS011;4405;49.272;8.590;2023-08-08T07:27:26;1.60;;;1.50;;
8737;SDS011;4405;49.272;8.590;2023-08-08T07:29:52;1.50;;;1.40;;
8737;SDS011;4405;49.272;8.590;2023-08-08T07:32:19;2.93;;;1.40;;
8737;SDS011;4405;49.272;8.590;2023-08-08T07:34:45;1.50;;;1.40;;
8737;SDS011;4405;49.272;8.590;2023-08-08T07:37:11;1.57;;;1.47;;
8737;SDS011;4405;49.272;8.590;2023-08-08T07:39:38;3.33;;;1.67;;
8737;SDS011;4405;49.272;8.590;2023-08-08T07:42:05;1.53;;;1.40;;
8737;SDS011;4405;49.272;8.590;2023-08-08T07:44:32;1.20;;;1.20;;
8737;SDS011;4405;49.272;8.590;2023-08-08T07:47:00;1.80;;;1.47;;
8737;SDS011;4405;49.272;8.590;2023-08-08T07:49:26;1.33;;;1.30;;
8737;SDS011;4405;49.272;8.590;2023-08-08T07:51:52;3.20;;;1.50;;
8737;SDS011;4405;49.272;8.590;2023-08-08T07:54:19;2.50;;;1.40;;
8737;SDS011;4405;49.272;8.590;2023-08-08T07:56:45;2.10;;;1.27;;
8737;SDS011;4405;49.272;8.590;2023-08-08T07:59:13;1.40;;;1.40;;
8737;SDS011;4405;49.272;8.590;2023-08-08T08:01:39;1.93;;;1.60;;
8737;SDS011;4405;49.272;8.590;2023-08-08T08:04:06;4.47;;;1.67;;
8737;SDS011;4405;49.272;8.590;2023-08-08T08:06:32;2.73;;;1.40;;
8737;SDS011;4405;49.272;8.590;2023-08-08T08:08:59;1.63;;;1.30;;
8737;SDS011;4405;49.272;8.590;2023-08-08T08:11:25;3.07;;;1.30;;
8737;SDS011;4405;49.272;8.590;2023-08-08T08:13:51;2.47;;;1.40;;
8737;SDS011;4405;49.272;8.590;2023-08-08T08:16:19;1.50;;;1.40;;
8737;SDS011;4405;49.272;8.590;2023-08-08T08:18:45;1.37;;;1.27;;
8737;SDS011;4405;49.272;8.590;2023-08-08T08:21:12;2.83;;;1.53;;
8737;SDS011;4405;49.272;8.590;2023-08-08T08:23:39;1.93;;;1.23;;
8737;SDS011;4405;49.272;8.590;2023-08-08T08:26:05;1.23;;;1.13;;
8737;SDS011;4405;49.272;8.590;2023-08-08T08:28:32;2.83;;;1.50;;
8737;SDS011;4405;49.272;8.590;2023-08-08T08:31:03;2.47;;;1.17;;
8737;SDS011;4405;49.272;8.590;2023-08-08T08:33:31;1.00;;;1.00;;
8737;SDS011;4405;49.272;8.590;2023-08-08T08:35:57;1.10;;;1.10;;
8737;SDS011;4405;49.272;8.590;2023-08-08T08:38:23;1.33;;;1.23;;
8737;SDS011;4405;49.272;8.590;2023-08-08T08:40:50;1.90;;;1.10;;
8737;SDS011;4405;49.272;8.590;2023-08-08T08:43:16;1.20;;;1.20;;
8737;SDS011;4405;49.272;8.590;2023-08-08T08:45:43;1.13;;;1.13;;
8737;SDS011;4405;49.272;8.590;2023-08-08T08:48:12;1.03;;;0.97;;
8737;SDS011;4405;49.272;8.590;2023-08-08T08:50:40;3.90;;;1.40;;
8737;SDS011;4405;49.272;8.590;2023-08-08T08:53:08;1.90;;;1.20;;
8737;SDS011;4405;49.272;8.590;2023-08-08T08:55:36;1.70;;;1.33;;
8737;SDS011;4405;49.272;8.590;2023-08-08T08:58:02;1.33;;;1.23;;
8737;SDS011;4405;49.272;8.590;2023-08-08T09:00:29;1.60;;;1.30;;
8737;SDS011;4405;49.272;8.590;2023-08-08T09:02:56;2.10;;;1.40;;
8737;SDS011;4405;49.272;8.590;2023-08-08T09:05:23;1.30;;;1.30;;
8737;SDS011;4405;49.272;8.590;2023-08-08T09:07:51;1.90;;;1.03;;
8737;SDS011;4405;49.272;8.590;2023-08-08T09:10:17;2.20;;;1.13;;
8737;SDS011;4405;49.272;8.590;2023-08-08T09:12:44;1.03;;;1.03;;
8737;SDS011;4405;49.272;8.590;2023-08-08T09:15:10;1.10;;;1.10;;
8737;SDS011;4405;49.272;8.590;2023-08-08T09:17:40;1.60;;;1.50;;
8737;SDS011;4405;49.272;8.590;2023-08-08T09:20:07;1.80;;;1.43;;
8737;SDS011;4405;49.272;8.590;2023-08-08T09:22:36;1.47;;;1.37;;
8737;SDS011;4405;49.272;8.590;2023-08-08T09:25:04;2.27;;;1.30;;
8737;SDS011;4405;49.272;8.590;2023-08-08T09:27:30;2.20;;;1.20;;
8737;SDS011;4405;49.272;8.590;2023-08-08T09:29:57;1.77;;;1.20;;
8737;SDS011;4405;49.272;8.590;2023-08-08T09:32:27;2.47;;;1.50;;
8737;SDS011;4405;49.272;8.590;2023-08-08T09:34:55;1.30;;;1.00;;
8737;SDS011;4405;49.272;8.590;2023-08-08T09:37:21;1.10;;;1.10;;
8737;SDS011;4405;49.272;8.590;2023-08-08T09:39:55;1.27;;;1.17;;
8737;SDS011;4405;49.272;8.590;2023-08-08T09:42:23;1.07;;;1.07;;
8737;SDS011;4405;49.272;8.590;2023-08-08T09:44:50;4.83;;;1.30;;
8737;SDS011;4405;49.272;8.590;2023-08-08T09:47:16;2.20;;;1.00;;
8737;SDS011;4405;49.272;8.590;2023-08-08T09:49:43;1.43;;;1.20;;
8737;SDS011;4405;49.272;8.590;2023-08-08T09:52:10;1.60;;;1.30;;
8737;SDS011;4405;49.272;8.590;2023-08-08T09:54:37;1.30;;;1.30;;
8737;SDS011;4405;49.272;8.590;2023-08-08T09:57:04;3.40;;;1.37;;
8737;SDS011;4405;49.272;8.590;2023-08-08T09:59:32;1.13;;;1.07;;
8737;SDS011;4405;49.272;8.590;2023-08-08T10:01:59;1.57;;;1.27;;
8737;SDS011;4405;49.272;8.590;2023-08-08T10:04:26;1.30;;;1.27;;
8737;SDS011;4405;49.272;8.590;2023-08-08T10:06:53;1.43;;;1.33;;
8737;SDS011;4405;49.272;8.590;2023-08-08T10:09:19;1.33;;;1.23;;
8737;SDS011;4405;49.272;8.590;2023-08-08T10:11:46;1.47;;;1.30;;
8737;SDS011;4405;49.272;8.590;2023-08-08T10:14:13;1.53;;;1.33;;
8737;SDS011;4405;49.272;8.590;2023-08-08T10:16:42;1.13;;;1.13;;
8737;SDS011;4405;49.272;8.590;2023-08-08T10:19:10;1.30;;;1.30;;
8737;SDS011;4405;49.272;8.590;2023-08-08T10:21:37;1.10;;;1.10;;
8737;SDS011;4405;49.272;8.590;2023-08-08T10:24:04;1.17;;;1.07;;
8737;SDS011;4405;49.272;8.590;2023-08-08T10:26:31;1.30;;;1.20;;
8737;SDS011;4405;49.272;8.590;2023-08-08T10:28:58;1.50;;;1.20;;
8737;SDS011;4405;49.272;8.590;2023-08-08T10:31:25;1.30;;;1.20;;
8737;SDS011;4405;49.272;8.590;2023-08-08T10:34:02;1.97;;;1.10;;
8737;SDS011;4405;49.272;8.590;2023-08-08T10:36:42;4.83;;;1.10;;
8737;SDS011;4405;49.272;8.590;2023-08-08T10:39:10;1.03;;;1.03;;
8737;SDS011;4405;49.272;8.590;2023-08-08T10:41:43;1.00;;;1.00;;
8737;SDS011;4405;49.272;8.590;2023-08-08T10:44:10;1.40;;;1.30;;
8737;SDS011;4405;49.272;8.590;2023-08-08T10:46:39;1.53;;;1.10;;
8737;SDS011;4405;49.272;8.590;2023-08-08T10:49:07;1.47;;;1.37;;
8737;SDS011;4405;49.272;8.590;2023-08-08T10:51:35;4.13;;;1.20;;
8737;SDS011;4405;49.272;8.590;2023-08-08T10:54:05;1.37;;;1.30;;
8737;SDS011;4405;49.272;8.590;2023-08-08T10:56:32;1.50;;;1.40;;
8737;SDS011;4405;49.272;8.590;2023-08-08T10:58:58;1.70;;;1.00;;
8737;SDS011;4405;49.272;8.590;2023-08-08T11:01:25;1.63;;;1.53;;
8737;SDS011;4405;49.272;8.590;2023-08-08T11:03:51;1.10;;;1.10;;
8737;SDS011;4405;49.272;8.590;2023-08-08T11:06:19;2.60;;;1.10;;
8737;SDS011;4405;49.272;8.590;2023-08-08T11:08:46;1.10;;;1.00;;
8737;SDS011;4405;49.272;8.590;2023-08-08T11:11:13;1.07;;;1.07;;
8737;SDS011;4405;49.272;8.590;2023-08-08T11:13:39;1.00;;;1.00;;
8737;SDS011;4405;49.272;8.590;2023-08-08T11:16:05;1.03;;;1.03;;
8737;SDS011;4405;49.272;8.590;2023-08-08T11:18:31;1.00;;;1.00;;
8737;SDS011;4405;49.272;8.590;2023-08-08T11:20:58;1.70;;;1.13;;
8737;SDS011;4405;49.272;8.590;2023-08-08T11:23:26;1.47;;;1.37;;
8737;SDS011;4405;49.272;8.590;2023-08-08T11:25:52;1.40;;;1.30;;
8737;SDS011;4405;49.272;8.590;2023-08-08T11:28:18;1.33;;;1.30;;
8737;SDS011;4405;49.272;8.590;2023-08-08T11:30:45;2.10;;;1.30;;
8737;SDS011;4405;49.272;8.590;2023-08-08T11:33:12;0.90;;;0.90;;
8737;SDS011;4405;49.272;8.590;2023-08-08T11:35:42;0.90;;;0.90;;
8737;SDS011;4405;49.272;8.590;2023-08-08T11:38:10;1.10;;;1.10;;
8737;SDS011;4405;49.272;8.590;2023-08-08T11:40:38;1.17;;;1.00;;
8737;SDS011;4405;49.272;8.590;2023-08-08T11:43:05;1.10;;;1.10;;
8737;SDS011;4405;49.272;8.590;2023-08-08T11:45:32;1.50;;;1.10;;
8737;SDS011;4405;49.272;8.590;2023-08-08T11:47:59;1.30;;;1.30;;
8737;SDS011;4405;49.272;8.590;2023-08-08T11:50:25;1.00;;;1.00;;
8737;SDS011;4405;49.272;8.590;2023-08-08T11:52:54;1.40;;;1.30;;
8737;SDS011;4405;49.272;8.590;2023-08-08T11:55:20;1.57;;;1.17;;
8737;SDS011;4405;49.272;8.590;2023-08-08T11:57:48;1.70;;;1.10;;
8737;SDS011;4405;49.272;8.590;2023-08-08T12:00:15;1.17;;;1.17;;
8737;SDS011;4405;49.272;8.590;2023-08-08T12:02:43;1.30;;;1.20;;
8737;SDS011;4405;49.272;8.590;2023-08-08T12:05:10;1.30;;;1.30;;
8737;SDS011;4405;49.272;8.590;2023-08-08T12:07:37;1.10;;;1.10;;
8737;SDS011;4405;49.272;8.590;2023-08-08T12:10:06;1.50;;;1.40;;
8737;SDS011;4405;49.272;8.590;2023-08-08T12:12:33;3.07;;;0.87;;
8737;SDS011;4405;49.272;8.590;2023-08-08T12:15:05;1.23;;;0.97;;
8737;SDS011;4405;49.272;8.590;2023-08-08T12:17:31;1.20;;;1.20;;
8737;SDS011;4405;49.272;8.590;2023-08-08T12:19:58;1.53;;;1.43;;
8737;SDS011;4405;49.272;8.590;2023-08-08T12:22:25;1.10;;;1.10;;
8737;SDS011;4405;49.272;8.590;2023-08-08T12:24:51;1.20;;;1.20;;
8737;SDS011;4405;49.272;8.590;2023-08-08T12:27:18;2.23;;;1.30;;
8737;SDS011;4405;49.272;8.590;2023-08-08T12:29:44;1.77;;;1.20;;
8737;SDS011;4405;49.272;8.590;2023-08-08T12:32:12;1.03;;;1.03;;
8737;SDS011;4405;49.272;8.590;2023-08-08T12:34:38;1.30;;;1.20;;
8737;SDS011;4405;49.272;8.590;2023-08-08T12:37:04;1.20;;;1.20;;
8737;SDS011;4405;49.272;8.590;2023-08-08T12:39:31;1.37;;;1.20;;
8737;SDS011;4405;49.272;8.590;2023-08-08T12:41:57;1.20;;;1.17;;
8737;SDS011;4405;49.272;8.590;2023-08-08T12:44:23;1.30;;;1.20;;
8737;SDS011;4405;49.272;8.590;2023-08-08T12:46:50;1.37;;;1.37;;
8737;SDS011;4405;49.272;8.590;2023-08-08T12:49:17;1.40;;;1.40;;
8737;SDS011;4405;49.272;8.590;2023-08-08T12:51:44;1.10;;;1.10;;
8737;SDS011;4405;49.272;8.590;2023-08-08T12:54:10;1.33;;;1.33;;
8737;SDS011;4405;49.272;8.590;2023-08-08T12:56:36;1.33;;;1.23;;
8737;SDS011;4405;49.272;8.590;2023-08-08T12:59:03;1.10;;;1.10;;
8737;SDS011;4405;49.272;8.590;2023-08-08T13:01:30;1.03;;;1.03;;
8737;SDS011;4405;49.272;8.590;2023-08-08T13:03:57;1.00;;;1.00;;
8737;SDS011;4405;49.272;8.590;2023-08-08T13:06:25;1.13;;;1.13;;
8737;SDS011;4405;49.272;8.590;2023-08-08T13:08:51;1.07;;;1.07;;
8737;SDS011;4405;49.272;8.590;2023-08-08T13:11:18;2.50;;;1.20;;
8737;SDS011;4405;49.272;8.590;2023-08-08T13:13:44;0.80;;;0.80;;
8737;SDS011;4405;49.272;8.590;2023-08-08T13:16:11;1.00;;;1.00;;
8737;SDS011;4405;49.272;8.590;2023-08-08T13:18:37;0.60;;;0.60;;
8737;SDS011;4405;49.272;8.590;2023-08-08T13:21:03;1.10;;;1.10;;
8737;SDS011;4405;49.272;8.590;2023-08-08T13:23:31;1.10;;;1.10;;
8737;SDS011;4405;49.272;8.590;2023-08-08T13:25:57;1.40;;;1.30;;
8737;SDS011;4405;49.272;8.590;2023-08-08T13:28:23;0.97;;;0.97;;
8737;SDS011;4405;49.272;8.590;2023-08-08T13:30:50;0.87;;;0.87;;
8737;SDS011;4405;49.272;8.590;2023-08-08T13:33:16;2.20;;;1.10;;
8737;SDS011;4405;49.272;8.590;2023-08-08T13:35:43;0.80;;;0.80;;
8737;SDS011;4405;49.272;8.590;2023-08-08T13:38:09;1.23;;;1.00;;
8737;SDS011;4405;49.272;8.590;2023-08-08T13:40:40;0.77;;;0.77;;
8737;SDS011;4405;49.272;8.590;2023-08-08T13:43:07;0.90;;;0.90;;
8737;SDS011;4405;49.272;8.590;2023-08-08T13:45:33;1.17;;;1.00;;
8737;SDS011;4405;49.272;8.590;2023-08-08T13:48:00;1.30;;;1.20;;
8737;SDS011;4405;49.272;8.590;2023-08-08T13:50:26;1.10;;;1.10;;
8737;SDS011;4405;49.272;8.590;2023-08-08T13:52:53;0.97;;;0.70;;
8737;SDS011;4405;49.272;8.590;2023-08-08T13:55:20;1.07;;;1.00;;
8737;SDS011;4405;49.272;8.590;2023-08-08T13:57:48;1.50;;;0.93;;
8737;SDS011;4405;49.272;8.590;2023-08-08T14:00:14;1.00;;;1.00;;
8737;SDS011;4405;49.272;8.590;2023-08-08T14:02:41;3.80;;;1.10;;
8737;SDS011;4405;49.272;8.590;2023-08-08T14:05:08;1.20;;;1.10;;
8737;SDS011;4405;49.272;8.590;2023-08-08T14:07:35;2.47;;;1.20;;
8737;SDS011;4405;49.272;8.590;2023-08-08T14:10:01;1.20;;;1.10;;
8737;SDS011;4405;49.272;8.590;2023-08-08T14:12:28;1.60;;;1.30;;
8737;SDS011;4405;49.272;8.590;2023-08-08T14:14:56;1.50;;;1.20;;
8737;SDS011;4405;49.272;8.590;2023-08-08T14:17:22;0.90;;;0.90;;
8737;SDS011;4405;49.272;8.590;2023-08-08T14:19:49;1.33;;;1.10;;
8737;SDS011;4405;49.272;8.590;2023-08-08T14:22:15;1.00;;;1.00;;
8737;SDS011;4405;49.272;8.590;2023-08-08T14:24:41;1.83;;;1.10;;
8737;SDS011;4405;49.272;8.590;2023-08-08T14:27:08;1.37;;;0.93;;
8737;SDS011;4405;49.272;8.590;2023-08-08T14:29:34;1.10;;;1.10;;
8737;SDS011;4405;49.272;8.590;2023-08-08T14:32:02;0.93;;;0.93;;
8737;SDS011;4405;49.272;8.590;2023-08-08T14:34:28;0.93;;;0.93;;
8737;SDS011;4405;49.272;8.590;2023-08-08T14:36:55;0.90;;;0.90;;
8737;SDS011;4405;49.272;8.590;2023-08-08T14:39:22;1.40;;;1.30;;
8737;SDS011;4405;49.272;8.590;2023-08-08T14:41:48;1.10;;;1.10;;
8737;SDS011;4405;49.272;8.590;2023-08-08T14:44:15;1.10;;;1.10;;
8737;SDS011;4405;49.272;8.590;2023-08-08T14:46:42;1.33;;;1.23;;
8737;SDS011;4405;49.272;8.590;2023-08-08T14:49:09;0.90;;;0.90;;
8737;SDS011;4405;49.272;8.590;2023-08-08T14:51:36;1.03;;;1.00;;
8737;SDS011;4405;49.272;8.590;2023-08-08T14:54:03;2.00;;;1.10;;
8737;SDS011;4405;49.272;8.590;2023-08-08T14:56:29;1.27;;;1.00;;
8737;SDS011;4405;49.272;8.590;2023-08-08T14:58:56;1.13;;;1.00;;
8737;SDS011;4405;49.272;8.590;2023-08-08T15:01:22;1.50;;;1.30;;
8737;SDS011;4405;49.272;8.590;2023-08-08T15:03:50;0.83;;;0.83;;
8737;SDS011;4405;49.272;8.590;2023-08-08T15:06:17;1.00;;;1.00;;
8737;SDS011;4405;49.272;8.590;2023-08-08T15:08:44;1.23;;;1.13;;
8737;SDS011;4405;49.272;8.590;2023-08-08T15:11:10;1.03;;;1.03;;
8737;SDS011;4405;49.272;8.590;2023-08-08T15:13:37;1.20;;;1.20;;